Camellia — VRCP9 — position and weather

sailwx.info

Track history (hours):
 
Tides and Currents Weather Stations Pressure Air Temp Water Temp Dewpoint Dewpoint Depression Visibility Wind Speed Wind Dir Waves Ship Positions

Camellia

Last reported at 2014-Jul-24 19:34 UTC. Time now 2014-Jul-24 20:11 UTC.
Position N 53°58' E 008°34'.

Length 222 m; draft 8.4 m.

Type: Ship (hazmat cat C). MMSI: 477791900.

Date/timePositionNaut miles runAvg speedWind from/ knotsBaromVisibWave heightAir tempDewpointWater temp
2014-Jul-24 19:34N 53°58' E 008°34'1615.9
2014-Jul-24 18:33N 53°59' E 008°07'8 7.9
2014-Jul-24 17:33N 53°57' E 007°53'9 9.1
2014-Jul-24 16:33N 53°55' E 007°38'10 9.7
2014-Jul-24 15:33N 53°53' E 007°22'1010.3
2014-Jul-24 14:33N 53°51' E 007°05'1413.9
2014-Jul-24 13:33N 53°48' E 006°42'1413.6
2014-Jul-24 12:33N 53°45' E 006°20'1413.7
2014-Jul-24 11:32N 53°40' E 005°57'1313.8
2014-Jul-24 10:33N 53°36' E 005°36'1413.8
2014-Jul-24 09:34N 53°31' E 005°14'1414.2
2014-Jul-24 08:33N 53°27' E 004°51'1413.8
2014-Jul-24 07:33N 53°16' E 004°37'1514.7
2014-Jul-24 06:33N 53°03' E 004°24'1514.9
2014-Jul-24 05:33N 52°50' E 004°14'1616.4
2014-Jul-24 04:33N 52°40' E 003°52'1616.5
2014-Jul-24 03:34N 52°28' E 003°32'1717.1
2014-Jul-24 02:33N 52°15' E 003°15'1717.4
2014-Jul-24 01:33N 52°01' E 002°59'1817.7
2014-Jul-24 00:33N 51°48' E 002°39'1817.8
2014-Jul-23 23:33N 51°35' E 002°20'1716.9
2014-Jul-23 22:33N 51°20' E 002°07'1616.4
2014-Jul-23 21:33N 51°08' E 001°49'8 7.8
2014-Jul-23 20:34N 51°02' E 001°57'9 9.2
2014-Jul-23 19:33N 51°00' E 002°11'0 0.0
2014-Jul-23 18:33N 51°00' E 002°11'0 0.0
2014-Jul-23 17:33N 51°00' E 002°11'0 0.0
2014-Jul-23 16:33N 51°00' E 002°11'0 0.0
2014-Jul-23 15:33N 51°00' E 002°11'0 0.0
2014-Jul-23 14:33N 51°00' E 002°11'0 0.0
2014-Jul-23 13:33N 51°00' E 002°11'0 0.0
2014-Jul-23 12:33N 51°00' E 002°11'0 0.0
2014-Jul-23 11:27N 51°00' E 002°11'0 0.0
2014-Jul-23 10:24N 51°00' E 002°11'2 2.9
2014-Jul-23 09:33N 51°03' E 002°09'1414.3
2014-Jul-23 08:34N 51°02' E 001°47'1313.3
2014-Jul-23 07:33N 50°55' E 001°29'12119.5
2014-Jul-23 01:22N 50°04' W 001°23'1720.5
2014-Jul-23 00:32N 49°60' W 001°49'1919.8
2014-Jul-22 23:33N 49°55' W 002°18'7020.4
2014-Jul-22 20:07N 49°26' W 003°56'3821.1
2014-Jul-22 18:17N 49°06' W 004°48'2321.0
2014-Jul-22 17:12N 48°55' W 005°18'1720.6
2014-Jul-22 16:23N 48°45' W 005°39'56720.9
2014-Jul-21 13:18N 39°48' W 009°52'4121.6
2014-Jul-21 11:24N 39°07' W 009°49'2021.4
2014-Jul-21 10:29N 38°47' W 009°50'2021.4
2014-Jul-21 09:33N 38°28' W 009°47'2121.6
2014-Jul-21 08:33N 38°07' W 009°40'2121.0
2014-Jul-21 07:33N 37°46' W 009°34'2121.2
2014-Jul-21 06:33N 37°26' W 009°28'2121.1
2014-Jul-21 05:33N 37°05' W 009°22'2020.4
2014-Jul-21 04:34N 36°47' W 009°12'1513.8
2014-Jul-21 03:27N 36°39' W 008°56'2 1.5
2014-Jul-21 02:17N 36°39' W 008°58'  
2014-Jul-17 23:19N 36°01' W 005°18'122 7.5
2014-Jul-17 07:08N 36°08' W 002°48'16 9.9
2014-Jul-17 05:32N 36°09' W 002°28'1010.3
2014-Jul-17 04:33N 36°09' W 002°16'14 9.9
2014-Jul-17 03:11N 36°10' W 001°59'7 9.9
2014-Jul-17 02:31N 36°12' W 001°51'27 9.2
2014-Jul-16 23:34N 36°18' W 001°18'10 9.4
2014-Jul-16 22:31N 36°21' W 001°07'9 8.9
2014-Jul-16 21:33N 36°22' W 000°56'17 8.6
2014-Jul-16 19:33N 36°27' W 000°35'9 8.9
2014-Jul-16 18:33N 36°29' W 000°25'9 8.8
2014-Jul-16 17:33N 36°31' W 000°14'9 8.7
2014-Jul-16 16:33N 36°33' W 000°03'10 8.6
2014-Jul-16 15:27N 36°35' E 000°08'12 9.0
2014-Jul-16 14:05N 36°38' E 000°23'7 9.3
2014-Jul-16 13:17N 36°40' E 000°32'7 9.4
2014-Jul-16 12:33N 36°41' E 000°40'9 9.5
2014-Jul-16 11:33N 36°43' E 000°52'9 9.3
2014-Jul-16 10:33N 36°45' E 001°03'9 9.0
2014-Jul-16 09:33N 36°47' E 001°14'9 9.3
2014-Jul-16 08:33N 36°50' E 001°25'9 9.5
2014-Jul-16 07:33N 36°52' E 001°37'1111.1
2014-Jul-16 06:33N 36°55' E 001°50'1110.9
2014-Jul-16 05:33N 36°58' E 002°04'1413.8
2014-Jul-16 04:33N 37°01' E 002°20'1414.3
2014-Jul-16 03:33N 37°04' E 002°38'1514.8
2014-Jul-16 02:33N 37°08' E 002°56'1515.2
2014-Jul-16 01:33N 37°11' E 003°14'1514.9
2014-Jul-16 00:33N 37°15' E 003°33'1615.2
2014-Jul-15 23:31N 37°18' E 003°52'1615.5
2014-Jul-15 22:30N 37°21' E 004°12'1515.7
2014-Jul-15 21:31N 37°20' E 004°31'4615.5
2014-Jul-15 18:33N 37°19' E 005°28'  
Track history (hours):
 
Tides and Currents Weather Stations Pressure Air Temp Water Temp Dewpoint Dewpoint Depression Visibility Wind Speed Wind Dir Waves Ship Positions

Camellia

Last reported at 2014-Jul-24 19:34 UTC. Time now 2014-Jul-24 20:11 UTC.
Position N 53°58' E 008°34'.

Length 222 m; draft 8.4 m.

Type: Ship (hazmat cat C). MMSI: 477791900.

Date/timePositionNaut miles runAvg speedWind from/ knotsBaromVisibWave heightAir tempDewpointWater temp
2014-Jul-24 19:34N 53°58' E 008°34'1615.9
2014-Jul-24 18:33N 53°59' E 008°07'8 7.9
2014-Jul-24 17:33N 53°57' E 007°53'9 9.1
2014-Jul-24 16:33N 53°55' E 007°38'10 9.7
2014-Jul-24 15:33N 53°53' E 007°22'1010.3
2014-Jul-24 14:33N 53°51' E 007°05'1413.9
2014-Jul-24 13:33N 53°48' E 006°42'1413.6
2014-Jul-24 12:33N 53°45' E 006°20'1413.7
2014-Jul-24 11:32N 53°40' E 005°57'1313.8
2014-Jul-24 10:33N 53°36' E 005°36'1413.8
2014-Jul-24 09:34N 53°31' E 005°14'1414.2
2014-Jul-24 08:33N 53°27' E 004°51'1413.8
2014-Jul-24 07:33N 53°16' E 004°37'1514.7
2014-Jul-24 06:33N 53°03' E 004°24'1514.9
2014-Jul-24 05:33N 52°50' E 004°14'1616.4
2014-Jul-24 04:33N 52°40' E 003°52'1616.5
2014-Jul-24 03:34N 52°28' E 003°32'1717.1
2014-Jul-24 02:33N 52°15' E 003°15'1717.4
2014-Jul-24 01:33N 52°01' E 002°59'1817.7
2014-Jul-24 00:33N 51°48' E 002°39'1817.8
2014-Jul-23 23:33N 51°35' E 002°20'1716.9
2014-Jul-23 22:33N 51°20' E 002°07'1616.4
2014-Jul-23 21:33N 51°08' E 001°49'8 7.8
2014-Jul-23 20:34N 51°02' E 001°57'9 9.2
2014-Jul-23 19:33N 51°00' E 002°11'0 0.0
2014-Jul-23 18:33N 51°00' E 002°11'0 0.0
2014-Jul-23 17:33N 51°00' E 002°11'0 0.0
2014-Jul-23 16:33N 51°00' E 002°11'0 0.0
2014-Jul-23 15:33N 51°00' E 002°11'0 0.0
2014-Jul-23 14:33N 51°00' E 002°11'0 0.0
2014-Jul-23 13:33N 51°00' E 002°11'0 0.0
2014-Jul-23 12:33N 51°00' E 002°11'0 0.0
2014-Jul-23 11:27N 51°00' E 002°11'0 0.0
2014-Jul-23 10:24N 51°00' E 002°11'2 2.9
2014-Jul-23 09:33N 51°03' E 002°09'1414.3
2014-Jul-23 08:34N 51°02' E 001°47'1313.3
2014-Jul-23 07:33N 50°55' E 001°29'12119.5
2014-Jul-23 01:22N 50°04' W 001°23'1720.5
2014-Jul-23 00:32N 49°60' W 001°49'1919.8
2014-Jul-22 23:33N 49°55' W 002°18'7020.4
2014-Jul-22 20:07N 49°26' W 003°56'3821.1
2014-Jul-22 18:17N 49°06' W 004°48'2321.0
2014-Jul-22 17:12N 48°55' W 005°18'1720.6
2014-Jul-22 16:23N 48°45' W 005°39'56720.9
2014-Jul-21 13:18N 39°48' W 009°52'4121.6
2014-Jul-21 11:24N 39°07' W 009°49'2021.4
2014-Jul-21 10:29N 38°47' W 009°50'2021.4
2014-Jul-21 09:33N 38°28' W 009°47'2121.6
2014-Jul-21 08:33N 38°07' W 009°40'2121.0
2014-Jul-21 07:33N 37°46' W 009°34'2121.2
2014-Jul-21 06:33N 37°26' W 009°28'2121.1
2014-Jul-21 05:33N 37°05' W 009°22'2020.4
2014-Jul-21 04:34N 36°47' W 009°12'1513.8
2014-Jul-21 03:27N 36°39' W 008°56'2 1.5
2014-Jul-21 02:17N 36°39' W 008°58'  
2014-Jul-17 23:19N 36°01' W 005°18'122 7.5
2014-Jul-17 07:08N 36°08' W 002°48'16 9.9
2014-Jul-17 05:32N 36°09' W 002°28'1010.3
2014-Jul-17 04:33N 36°09' W 002°16'14 9.9
2014-Jul-17 03:11N 36°10' W 001°59'7 9.9
2014-Jul-17 02:31N 36°12' W 001°51'27 9.2
2014-Jul-16 23:34N 36°18' W 001°18'10 9.4
2014-Jul-16 22:31N 36°21' W 001°07'9 8.9
2014-Jul-16 21:33N 36°22' W 000°56'17 8.6
2014-Jul-16 19:33N 36°27' W 000°35'9 8.9
2014-Jul-16 18:33N 36°29' W 000°25'9 8.8
2014-Jul-16 17:33N 36°31' W 000°14'9 8.7
2014-Jul-16 16:33N 36°33' W 000°03'10 8.6
2014-Jul-16 15:27N 36°35' E 000°08'12 9.0
2014-Jul-16 14:05N 36°38' E 000°23'7 9.3
2014-Jul-16 13:17N 36°40' E 000°32'7 9.4
2014-Jul-16 12:33N 36°41' E 000°40'9 9.5
2014-Jul-16 11:33N 36°43' E 000°52'9 9.3
2014-Jul-16 10:33N 36°45' E 001°03'9 9.0
2014-Jul-16 09:33N 36°47' E 001°14'9 9.3
2014-Jul-16 08:33N 36°50' E 001°25'9 9.5
2014-Jul-16 07:33N 36°52' E 001°37'1111.1
2014-Jul-16 06:33N 36°55' E 001°50'1110.9
2014-Jul-16 05:33N 36°58' E 002°04'1413.8
2014-Jul-16 04:33N 37°01' E 002°20'1414.3
2014-Jul-16 03:33N 37°04' E 002°38'1514.8
2014-Jul-16 02:33N 37°08' E 002°56'1515.2
2014-Jul-16 01:33N 37°11' E 003°14'1514.9
2014-Jul-16 00:33N 37°15' E 003°33'1615.2
2014-Jul-15 23:31N 37°18' E 003°52'1615.5
2014-Jul-15 22:30N 37°21' E 004°12'1515.7
2014-Jul-15 21:31N 37°20' E 004°31'4615.5
2014-Jul-15 18:33N 37°19' E 005°28'  

Dump ship's entire track history